sensor_id;sensor_type;location;lat;lon;timestamp;P1;durP1;ratioP1;P2;durP2;ratioP2
41446;SDS011;27185;52.040;4.490;2023-09-07T00:01:42;6.43;;;4.97;;
41446;SDS011;27185;52.040;4.490;2023-09-07T00:04:27;6.78;;;4.78;;
41446;SDS011;27185;52.040;4.490;2023-09-07T00:07:13;7.10;;;5.53;;
41446;SDS011;27185;52.040;4.490;2023-09-07T00:09:59;7.30;;;4.82;;
41446;SDS011;27185;52.040;4.490;2023-09-07T00:12:44;6.80;;;5.30;;
41446;SDS011;27185;52.040;4.490;2023-09-07T00:15:35;8.43;;;5.50;;
41446;SDS011;27185;52.040;4.490;2023-09-07T00:18:22;8.75;;;4.80;;
41446;SDS011;27185;52.040;4.490;2023-09-07T00:21:07;6.72;;;5.07;;
41446;SDS011;27185;52.040;4.490;2023-09-07T00:23:53;6.30;;;5.30;;
41446;SDS011;27185;52.040;4.490;2023-09-07T00:26:40;5.93;;;4.90;;
41446;SDS011;27185;52.040;4.490;2023-09-07T00:29:25;6.45;;;4.85;;
41446;SDS011;27185;52.040;4.490;2023-09-07T00:32:11;6.00;;;5.07;;
41446;SDS011;27185;52.040;4.490;2023-09-07T00:34:56;6.85;;;5.15;;
41446;SDS011;27185;52.040;4.490;2023-09-07T00:37:42;8.05;;;4.95;;
41446;SDS011;27185;52.040;4.490;2023-09-07T00:40:27;6.82;;;5.50;;
41446;SDS011;27185;52.040;4.490;2023-09-07T00:43:13;7.18;;;5.38;;
41446;SDS011;27185;52.040;4.490;2023-09-07T00:45:59;8.68;;;6.05;;
41446;SDS011;27185;52.040;4.490;2023-09-07T00:48:45;6.28;;;5.22;;
41446;SDS011;27185;52.040;4.490;2023-09-07T00:51:31;7.45;;;5.38;;
41446;SDS011;27185;52.040;4.490;2023-09-07T00:54:17;7.43;;;5.40;;
41446;SDS011;27185;52.040;4.490;2023-09-07T00:57:03;9.25;;;6.45;;
41446;SDS011;27185;52.040;4.490;2023-09-07T00:59:50;7.88;;;5.45;;
41446;SDS011;27185;52.040;4.490;2023-09-07T01:02:35;7.70;;;5.63;;
41446;SDS011;27185;52.040;4.490;2023-09-07T01:05:21;8.02;;;5.80;;
41446;SDS011;27185;52.040;4.490;2023-09-07T01:08:17;6.65;;;5.28;;
41446;SDS011;27185;52.040;4.490;2023-09-07T01:11:14;6.57;;;5.47;;
41446;SDS011;27185;52.040;4.490;2023-09-07T01:14:01;6.93;;;5.43;;
41446;SDS011;27185;52.040;4.490;2023-09-07T01:19:35;8.50;;;5.40;;
41446;SDS011;27185;52.040;4.490;2023-09-07T01:22:20;6.38;;;5.40;;
41446;SDS011;27185;52.040;4.490;2023-09-07T01:25:09;9.13;;;6.22;;
41446;SDS011;27185;52.040;4.490;2023-09-07T01:27:55;8.02;;;6.20;;
41446;SDS011;27185;52.040;4.490;2023-09-07T01:30:41;8.27;;;7.03;;
41446;SDS011;27185;52.040;4.490;2023-09-07T01:33:26;8.15;;;6.82;;
41446;SDS011;27185;52.040;4.490;2023-09-07T01:36:12;7.82;;;6.07;;
41446;SDS011;27185;52.040;4.490;2023-09-07T01:38:58;10.02;;;6.95;;
41446;SDS011;27185;52.040;4.490;2023-09-07T01:41:43;8.30;;;6.28;;
41446;SDS011;27185;52.040;4.490;2023-09-07T01:44:29;10.23;;;6.75;;
41446;SDS011;27185;52.040;4.490;2023-09-07T01:47:15;10.05;;;6.90;;
41446;SDS011;27185;52.040;4.490;2023-09-07T01:50:00;8.88;;;6.32;;
41446;SDS011;27185;52.040;4.490;2023-09-07T01:52:46;8.27;;;6.63;;
41446;SDS011;27185;52.040;4.490;2023-09-07T01:55:33;8.68;;;6.50;;
41446;SDS011;27185;52.040;4.490;2023-09-07T01:58:19;9.30;;;6.18;;
41446;SDS011;27185;52.040;4.490;2023-09-07T02:01:04;7.38;;;6.57;;
41446;SDS011;27185;52.040;4.490;2023-09-07T02:03:50;8.80;;;5.75;;
41446;SDS011;27185;52.040;4.490;2023-09-07T02:06:36;9.13;;;6.75;;
41446;SDS011;27185;52.040;4.490;2023-09-07T02:09:21;7.70;;;6.32;;
41446;SDS011;27185;52.040;4.490;2023-09-07T02:12:07;10.00;;;6.75;;
41446;SDS011;27185;52.040;4.490;2023-09-07T02:14:53;9.02;;;6.22;;
41446;SDS011;27185;52.040;4.490;2023-09-07T02:17:39;8.38;;;6.30;;
41446;SDS011;27185;52.040;4.490;2023-09-07T02:20:24;8.70;;;7.00;;
41446;SDS011;27185;52.040;4.490;2023-09-07T02:23:10;9.07;;;6.35;;
41446;SDS011;27185;52.040;4.490;2023-09-07T02:25:55;8.52;;;5.90;;
41446;SDS011;27185;52.040;4.490;2023-09-07T02:28:41;7.32;;;6.53;;
41446;SDS011;27185;52.040;4.490;2023-09-07T02:31:28;12.77;;;6.63;;
41446;SDS011;27185;52.040;4.490;2023-09-07T02:34:14;9.18;;;6.18;;
41446;SDS011;27185;52.040;4.490;2023-09-07T02:36:59;8.43;;;6.28;;
41446;SDS011;27185;52.040;4.490;2023-09-07T02:39:45;12.65;;;7.30;;
41446;SDS011;27185;52.040;4.490;2023-09-07T02:42:31;7.78;;;6.70;;
41446;SDS011;27185;52.040;4.490;2023-09-07T02:45:16;8.07;;;7.28;;
41446;SDS011;27185;52.040;4.490;2023-09-07T02:48:02;8.40;;;7.03;;
41446;SDS011;27185;52.040;4.490;2023-09-07T02:50:48;10.32;;;6.57;;
41446;SDS011;27185;52.040;4.490;2023-09-07T02:53:35;10.65;;;7.10;;
41446;SDS011;27185;52.040;4.490;2023-09-07T02:56:21;9.15;;;6.38;;
41446;SDS011;27185;52.040;4.490;2023-09-07T02:59:07;9.10;;;7.35;;
41446;SDS011;27185;52.040;4.490;2023-09-07T03:01:53;10.02;;;7.93;;
41446;SDS011;27185;52.040;4.490;2023-09-07T03:04:39;12.73;;;8.35;;
41446;SDS011;27185;52.040;4.490;2023-09-07T03:07:24;8.88;;;7.60;;
41446;SDS011;27185;52.040;4.490;2023-09-07T03:10:10;9.43;;;7.63;;
41446;SDS011;27185;52.040;4.490;2023-09-07T03:12:56;8.43;;;6.78;;
41446;SDS011;27185;52.040;4.490;2023-09-07T03:15:41;12.07;;;7.93;;
41446;SDS011;27185;52.040;4.490;2023-09-07T03:18:27;9.43;;;7.88;;
41446;SDS011;27185;52.040;4.490;2023-09-07T03:21:12;10.68;;;8.32;;
41446;SDS011;27185;52.040;4.490;2023-09-07T03:23:58;9.55;;;8.25;;
41446;SDS011;27185;52.040;4.490;2023-09-07T03:26:44;11.57;;;8.23;;
41446;SDS011;27185;52.040;4.490;2023-09-07T03:29:29;10.40;;;7.40;;
41446;SDS011;27185;52.040;4.490;2023-09-07T03:32:15;8.55;;;7.22;;
41446;SDS011;27185;52.040;4.490;2023-09-07T03:35:02;10.73;;;8.45;;
41446;SDS011;27185;52.040;4.490;2023-09-07T03:37:51;9.15;;;8.23;;
41446;SDS011;27185;52.040;4.490;2023-09-07T03:40:37;12.60;;;8.60;;
41446;SDS011;27185;52.040;4.490;2023-09-07T03:43:23;9.50;;;7.93;;
41446;SDS011;27185;52.040;4.490;2023-09-07T03:46:08;9.13;;;7.90;;
41446;SDS011;27185;52.040;4.490;2023-09-07T03:48:54;10.43;;;8.23;;
41446;SDS011;27185;52.040;4.490;2023-09-07T03:51:39;10.88;;;8.00;;
41446;SDS011;27185;52.040;4.490;2023-09-07T03:54:25;10.00;;;8.30;;
41446;SDS011;27185;52.040;4.490;2023-09-07T03:57:10;14.32;;;9.32;;
41446;SDS011;27185;52.040;4.490;2023-09-07T03:59:56;9.95;;;8.75;;
41446;SDS011;27185;52.040;4.490;2023-09-07T04:02:42;10.80;;;8.48;;
41446;SDS011;27185;52.040;4.490;2023-09-07T04:05:28;13.35;;;9.32;;
41446;SDS011;27185;52.040;4.490;2023-09-07T04:08:13;10.93;;;8.73;;
41446;SDS011;27185;52.040;4.490;2023-09-07T04:11:03;12.65;;;9.05;;
41446;SDS011;27185;52.040;4.490;2023-09-07T04:13:49;12.30;;;9.70;;
41446;SDS011;27185;52.040;4.490;2023-09-07T04:16:34;10.52;;;8.90;;
41446;SDS011;27185;52.040;4.490;2023-09-07T04:19:20;17.88;;;9.77;;
41446;SDS011;27185;52.040;4.490;2023-09-07T04:22:05;12.85;;;9.35;;
41446;SDS011;27185;52.040;4.490;2023-09-07T04:24:51;12.35;;;9.38;;
41446;SDS011;27185;52.040;4.490;2023-09-07T04:27:37;13.52;;;10.07;;
41446;SDS011;27185;52.040;4.490;2023-09-07T04:30:22;12.88;;;9.55;;
41446;SDS011;27185;52.040;4.490;2023-09-07T04:33:08;14.27;;;10.55;;
41446;SDS011;27185;52.040;4.490;2023-09-07T04:35:53;17.10;;;11.63;;
41446;SDS011;27185;52.040;4.490;2023-09-07T04:38:39;12.93;;;10.60;;
41446;SDS011;27185;52.040;4.490;2023-09-07T04:41:25;13.05;;;10.27;;
41446;SDS011;27185;52.040;4.490;2023-09-07T04:44:11;14.10;;;10.40;;
41446;SDS011;27185;52.040;4.490;2023-09-07T04:46:56;13.50;;;10.93;;
41446;SDS011;27185;52.040;4.490;2023-09-07T04:49:42;13.48;;;10.02;;
41446;SDS011;27185;52.040;4.490;2023-09-07T04:52:33;12.63;;;10.30;;
41446;SDS011;27185;52.040;4.490;2023-09-07T04:55:19;12.93;;;10.15;;
41446;SDS011;27185;52.040;4.490;2023-09-07T04:58:05;12.30;;;10.00;;
41446;SDS011;27185;52.040;4.490;2023-09-07T05:00:51;17.35;;;10.63;;
41446;SDS011;27185;52.040;4.490;2023-09-07T05:03:37;14.35;;;10.50;;
41446;SDS011;27185;52.040;4.490;2023-09-07T05:06:24;13.77;;;10.73;;
41446;SDS011;27185;52.040;4.490;2023-09-07T05:09:11;13.35;;;10.27;;
41446;SDS011;27185;52.040;4.490;2023-09-07T05:11:56;13.32;;;9.93;;
41446;SDS011;27185;52.040;4.490;2023-09-07T05:14:42;12.80;;;10.73;;
41446;SDS011;27185;52.040;4.490;2023-09-07T05:17:28;13.50;;;9.95;;
41446;SDS011;27185;52.040;4.490;2023-09-07T05:20:16;14.90;;;10.73;;
41446;SDS011;27185;52.040;4.490;2023-09-07T05:23:02;14.68;;;11.13;;
41446;SDS011;27185;52.040;4.490;2023-09-07T05:25:49;13.77;;;11.13;;
41446;SDS011;27185;52.040;4.490;2023-09-07T05:28:42;12.88;;;11.27;;
41446;SDS011;27185;52.040;4.490;2023-09-07T05:31:27;17.00;;;10.50;;
41446;SDS011;27185;52.040;4.490;2023-09-07T05:34:13;15.68;;;10.38;;
41446;SDS011;27185;52.040;4.490;2023-09-07T05:36:58;15.20;;;10.10;;
41446;SDS011;27185;52.040;4.490;2023-09-07T05:39:44;14.85;;;11.48;;
41446;SDS011;27185;52.040;4.490;2023-09-07T05:42:30;15.45;;;11.02;;
41446;SDS011;27185;52.040;4.490;2023-09-07T05:45:15;17.50;;;9.20;;
41446;SDS011;27185;52.040;4.490;2023-09-07T05:48:01;14.77;;;11.20;;
41446;SDS011;27185;52.040;4.490;2023-09-07T05:50:47;13.38;;;9.77;;
41446;SDS011;27185;52.040;4.490;2023-09-07T05:53:33;16.48;;;11.32;;
41446;SDS011;27185;52.040;4.490;2023-09-07T05:56:18;12.45;;;10.18;;
41446;SDS011;27185;52.040;4.490;2023-09-07T05:59:04;14.70;;;10.68;;
41446;SDS011;27185;52.040;4.490;2023-09-07T06:01:50;18.35;;;12.15;;
41446;SDS011;27185;52.040;4.490;2023-09-07T06:04:35;17.10;;;12.13;;
41446;SDS011;27185;52.040;4.490;2023-09-07T06:07:21;15.32;;;11.48;;
41446;SDS011;27185;52.040;4.490;2023-09-07T06:10:07;19.13;;;11.80;;
41446;SDS011;27185;52.040;4.490;2023-09-07T06:12:53;17.13;;;11.95;;
41446;SDS011;27185;52.040;4.490;2023-09-07T06:15:38;13.57;;;10.63;;
41446;SDS011;27185;52.040;4.490;2023-09-07T06:18:24;17.45;;;11.48;;
41446;SDS011;27185;52.040;4.490;2023-09-07T06:21:09;14.07;;;10.18;;
41446;SDS011;27185;52.040;4.490;2023-09-07T06:23:55;15.90;;;11.73;;
41446;SDS011;27185;52.040;4.490;2023-09-07T06:26:40;12.30;;;9.65;;
41446;SDS011;27185;52.040;4.490;2023-09-07T06:29:27;12.68;;;9.75;;
41446;SDS011;27185;52.040;4.490;2023-09-07T06:32:13;16.00;;;10.05;;
41446;SDS011;27185;52.040;4.490;2023-09-07T06:34:59;13.43;;;9.90;;
41446;SDS011;27185;52.040;4.490;2023-09-07T06:37:44;13.93;;;9.98;;
41446;SDS011;27185;52.040;4.490;2023-09-07T06:40:30;17.63;;;11.63;;
41446;SDS011;27185;52.040;4.490;2023-09-07T06:43:15;12.63;;;10.23;;
41446;SDS011;27185;52.040;4.490;2023-09-07T06:46:06;13.43;;;9.52;;
41446;SDS011;27185;52.040;4.490;2023-09-07T06:48:52;16.67;;;9.82;;
41446;SDS011;27185;52.040;4.490;2023-09-07T06:51:38;11.88;;;9.73;;
41446;SDS011;27185;52.040;4.490;2023-09-07T06:54:24;13.80;;;10.35;;
41446;SDS011;27185;52.040;4.490;2023-09-07T06:57:09;13.30;;;9.63;;
41446;SDS011;27185;52.040;4.490;2023-09-07T06:59:55;14.75;;;10.55;;
41446;SDS011;27185;52.040;4.490;2023-09-07T07:02:41;12.57;;;9.63;;
41446;SDS011;27185;52.040;4.490;2023-09-07T07:05:26;12.88;;;9.70;;
41446;SDS011;27185;52.040;4.490;2023-09-07T07:08:14;12.13;;;8.88;;
41446;SDS011;27185;52.040;4.490;2023-09-07T07:10:59;12.35;;;8.98;;
41446;SDS011;27185;52.040;4.490;2023-09-07T07:13:46;15.13;;;10.23;;
41446;SDS011;27185;52.040;4.490;2023-09-07T07:16:31;14.70;;;9.93;;
41446;SDS011;27185;52.040;4.490;2023-09-07T07:19:17;12.93;;;9.57;;
41446;SDS011;27185;52.040;4.490;2023-09-07T07:22:02;11.73;;;9.00;;
41446;SDS011;27185;52.040;4.490;2023-09-07T07:24:48;11.68;;;9.15;;
41446;SDS011;27185;52.040;4.490;2023-09-07T07:27:34;11.32;;;8.93;;
41446;SDS011;27185;52.040;4.490;2023-09-07T07:30:19;11.25;;;8.73;;
41446;SDS011;27185;52.040;4.490;2023-09-07T07:33:05;12.73;;;9.20;;
41446;SDS011;27185;52.040;4.490;2023-09-07T07:35:51;12.43;;;8.75;;
41446;SDS011;27185;52.040;4.490;2023-09-07T07:38:37;11.85;;;8.38;;
41446;SDS011;27185;52.040;4.490;2023-09-07T07:41:23;9.93;;;8.38;;
41446;SDS011;27185;52.040;4.490;2023-09-07T07:44:08;10.02;;;8.23;;
41446;SDS011;27185;52.040;4.490;2023-09-07T07:46:54;14.07;;;8.13;;
41446;SDS011;27185;52.040;4.490;2023-09-07T07:49:40;12.10;;;8.15;;
41446;SDS011;27185;52.040;4.490;2023-09-07T07:52:25;10.00;;;8.45;;
41446;SDS011;27185;52.040;4.490;2023-09-07T07:55:12;10.70;;;7.95;;
41446;SDS011;27185;52.040;4.490;2023-09-07T07:57:58;14.23;;;9.00;;
41446;SDS011;27185;52.040;4.490;2023-09-07T08:00:43;10.63;;;8.05;;
41446;SDS011;27185;52.040;4.490;2023-09-07T08:03:32;11.40;;;7.90;;
41446;SDS011;27185;52.040;4.490;2023-09-07T08:06:18;16.25;;;8.00;;
41446;SDS011;27185;52.040;4.490;2023-09-07T08:09:04;9.15;;;7.35;;
41446;SDS011;27185;52.040;4.490;2023-09-07T08:11:50;9.20;;;7.07;;
41446;SDS011;27185;52.040;4.490;2023-09-07T08:14:36;8.38;;;6.60;;
41446;SDS011;27185;52.040;4.490;2023-09-07T08:17:22;10.60;;;6.72;;
41446;SDS011;27185;52.040;4.490;2023-09-07T08:20:08;9.80;;;6.32;;
41446;SDS011;27185;52.040;4.490;2023-09-07T08:22:56;11.05;;;6.60;;
41446;SDS011;27185;52.040;4.490;2023-09-07T08:25:43;8.10;;;6.67;;
41446;SDS011;27185;52.040;4.490;2023-09-07T08:28:31;11.18;;;6.15;;
41446;SDS011;27185;52.040;4.490;2023-09-07T08:31:17;8.88;;;6.28;;
41446;SDS011;27185;52.040;4.490;2023-09-07T08:34:07;10.00;;;7.07;;
41446;SDS011;27185;52.040;4.490;2023-09-07T08:36:56;8.07;;;6.72;;
41446;SDS011;27185;52.040;4.490;2023-09-07T08:39:44;10.02;;;6.60;;
41446;SDS011;27185;52.040;4.490;2023-09-07T08:42:29;10.52;;;6.32;;
41446;SDS011;27185;52.040;4.490;2023-09-07T08:45:15;9.13;;;6.30;;
41446;SDS011;27185;52.040;4.490;2023-09-07T08:48:06;7.30;;;5.93;;
41446;SDS011;27185;52.040;4.490;2023-09-07T08:50:53;7.78;;;5.80;;
41446;SDS011;27185;52.040;4.490;2023-09-07T08:53:40;8.25;;;5.65;;
41446;SDS011;27185;52.040;4.490;2023-09-07T08:56:26;9.77;;;5.97;;
41446;SDS011;27185;52.040;4.490;2023-09-07T08:59:12;8.73;;;5.43;;
41446;SDS011;27185;52.040;4.490;2023-09-07T09:01:58;8.38;;;5.57;;
41446;SDS011;27185;52.040;4.490;2023-09-07T09:04:44;7.45;;;5.20;;
41446;SDS011;27185;52.040;4.490;2023-09-07T09:07:29;6.85;;;4.60;;
41446;SDS011;27185;52.040;4.490;2023-09-07T09:10:17;9.07;;;4.75;;
41446;SDS011;27185;52.040;4.490;2023-09-07T09:13:03;7.22;;;4.68;;
41446;SDS011;27185;52.040;4.490;2023-09-07T09:15:49;8.82;;;5.35;;
41446;SDS011;27185;52.040;4.490;2023-09-07T09:18:35;6.85;;;4.93;;
41446;SDS011;27185;52.040;4.490;2023-09-07T09:21:21;8.52;;;4.55;;
41446;SDS011;27185;52.040;4.490;2023-09-07T09:24:10;9.93;;;4.15;;
41446;SDS011;27185;52.040;4.490;2023-09-07T09:26:56;8.75;;;4.53;;
41446;SDS011;27185;52.040;4.490;2023-09-07T09:29:42;10.13;;;5.15;;
41446;SDS011;27185;52.040;4.490;2023-09-07T09:32:27;9.00;;;4.20;;
41446;SDS011;27185;52.040;4.490;2023-09-07T09:35:18;6.00;;;3.92;;
41446;SDS011;27185;52.040;4.490;2023-09-07T09:38:04;7.40;;;4.65;;
41446;SDS011;27185;52.040;4.490;2023-09-07T09:40:50;6.40;;;3.55;;
41446;SDS011;27185;52.040;4.490;2023-09-07T09:43:37;5.35;;;3.88;;
41446;SDS011;27185;52.040;4.490;2023-09-07T09:46:22;9.13;;;3.88;;
41446;SDS011;27185;52.040;4.490;2023-09-07T09:49:10;4.93;;;3.83;;
41446;SDS011;27185;52.040;4.490;2023-09-07T09:51:58;5.93;;;4.15;;
41446;SDS011;27185;52.040;4.490;2023-09-07T09:54:45;5.70;;;4.30;;
41446;SDS011;27185;52.040;4.490;2023-09-07T09:57:31;8.10;;;4.03;;
41446;SDS011;27185;52.040;4.490;2023-09-07T10:00:17;8.25;;;3.72;;
41446;SDS011;27185;52.040;4.490;2023-09-07T10:03:05;4.22;;;2.78;;
41446;SDS011;27185;52.040;4.490;2023-09-07T10:09:13;4.15;;;2.85;;
41446;SDS011;27185;52.040;4.490;2023-09-07T10:12:02;4.43;;;2.83;;
41446;SDS011;27185;52.040;4.490;2023-09-07T10:17:37;5.30;;;2.70;;
41446;SDS011;27185;52.040;4.490;2023-09-07T10:20:22;6.45;;;2.60;;
41446;SDS011;27185;52.040;4.490;2023-09-07T10:23:08;5.38;;;2.28;;
41446;SDS011;27185;52.040;4.490;2023-09-07T10:25:54;3.92;;;2.22;;
41446;SDS011;27185;52.040;4.490;2023-09-07T10:28:45;3.45;;;2.22;;
41446;SDS011;27185;52.040;4.490;2023-09-07T10:31:31;5.43;;;2.60;;
41446;SDS011;27185;52.040;4.490;2023-09-07T10:34:16;4.40;;;2.53;;
41446;SDS011;27185;52.040;4.490;2023-09-07T10:37:02;4.30;;;2.40;;
41446;SDS011;27185;52.040;4.490;2023-09-07T10:39:50;7.27;;;2.40;;
41446;SDS011;27185;52.040;4.490;2023-09-07T10:42:35;5.03;;;2.47;;
41446;SDS011;27185;52.040;4.490;2023-09-07T10:45:21;5.85;;;2.83;;
41446;SDS011;27185;52.040;4.490;2023-09-07T10:48:07;5.72;;;2.45;;
41446;SDS011;27185;52.040;4.490;2023-09-07T10:50:53;5.27;;;2.53;;
41446;SDS011;27185;52.040;4.490;2023-09-07T10:53:39;3.67;;;2.13;;
41446;SDS011;27185;52.040;4.490;2023-09-07T10:56:26;5.63;;;2.38;;
41446;SDS011;27185;52.040;4.490;2023-09-07T10:59:14;3.53;;;1.92;;
41446;SDS011;27185;52.040;4.490;2023-09-07T11:02:04;3.15;;;1.90;;
41446;SDS011;27185;52.040;4.490;2023-09-07T11:04:52;6.90;;;2.70;;
41446;SDS011;27185;52.040;4.490;2023-09-07T11:07:38;4.70;;;1.98;;
41446;SDS011;27185;52.040;4.490;2023-09-07T11:10:25;3.03;;;1.70;;
41446;SDS011;27185;52.040;4.490;2023-09-07T11:13:11;2.70;;;1.83;;
41446;SDS011;27185;52.040;4.490;2023-09-07T11:15:57;3.63;;;2.10;;
41446;SDS011;27185;52.040;4.490;2023-09-07T11:18:44;4.32;;;1.90;;
41446;SDS011;27185;52.040;4.490;2023-09-07T11:21:31;5.15;;;2.40;;
41446;SDS011;27185;52.040;4.490;2023-09-07T11:24:19;4.32;;;1.75;;
41446;SDS011;27185;52.040;4.490;2023-09-07T11:27:05;11.20;;;2.85;;
41446;SDS011;27185;52.040;4.490;2023-09-07T11:29:51;5.05;;;1.77;;
41446;SDS011;27185;52.040;4.490;2023-09-07T11:32:37;3.53;;;1.67;;
41446;SDS011;27185;52.040;4.490;2023-09-07T11:35:25;5.35;;;1.73;;
41446;SDS011;27185;52.040;4.490;2023-09-07T11:38:12;4.68;;;1.80;;
41446;SDS011;27185;52.040;4.490;2023-09-07T11:40:59;4.60;;;1.65;;
41446;SDS011;27185;52.040;4.490;2023-09-07T11:43:46;4.68;;;1.40;;
41446;SDS011;27185;52.040;4.490;2023-09-07T11:49:17;3.80;;;1.30;;
41446;SDS011;27185;52.040;4.490;2023-09-07T11:52:05;3.20;;;1.33;;
41446;SDS011;27185;52.040;4.490;2023-09-07T11:54:50;2.97;;;1.52;;
41446;SDS011;27185;52.040;4.490;2023-09-07T11:57:36;4.60;;;1.60;;
41446;SDS011;27185;52.040;4.490;2023-09-07T12:00:22;2.50;;;1.37;;
41446;SDS011;27185;52.040;4.490;2023-09-07T12:03:08;2.95;;;1.30;;
41446;SDS011;27185;52.040;4.490;2023-09-07T12:05:54;5.35;;;1.70;;
41446;SDS011;27185;52.040;4.490;2023-09-07T12:08:41;2.17;;;1.20;;
41446;SDS011;27185;52.040;4.490;2023-09-07T12:11:43;3.40;;;1.50;;
41446;SDS011;27185;52.040;4.490;2023-09-07T12:17:16;4.43;;;1.30;;
41446;SDS011;27185;52.040;4.490;2023-09-07T12:20:02;2.28;;;1.02;;
41446;SDS011;27185;52.040;4.490;2023-09-07T12:22:49;2.20;;;1.23;;
41446;SDS011;27185;52.040;4.490;2023-09-07T12:25:36;2.95;;;1.38;;
41446;SDS011;27185;52.040;4.490;2023-09-07T12:28:22;4.68;;;1.52;;
41446;SDS011;27185;52.040;4.490;2023-09-07T12:31:07;2.33;;;1.40;;
41446;SDS011;27185;52.040;4.490;2023-09-07T12:33:53;2.60;;;1.42;;
41446;SDS011;27185;52.040;4.490;2023-09-07T12:36:39;3.63;;;1.35;;
41446;SDS011;27185;52.040;4.490;2023-09-07T12:39:24;2.55;;;1.25;;
41446;SDS011;27185;52.040;4.490;2023-09-07T12:42:10;4.43;;;1.20;;
41446;SDS011;27185;52.040;4.490;2023-09-07T12:44:56;3.25;;;1.35;;
41446;SDS011;27185;52.040;4.490;2023-09-07T12:47:41;5.13;;;1.25;;
41446;SDS011;27185;52.040;4.490;2023-09-07T12:50:27;2.58;;;1.23;;
41446;SDS011;27185;52.040;4.490;2023-09-07T12:53:13;3.70;;;1.40;;
41446;SDS011;27185;52.040;4.490;2023-09-07T12:56:01;5.07;;;1.60;;
41446;SDS011;27185;52.040;4.490;2023-09-07T12:58:48;2.92;;;1.35;;
41446;SDS011;27185;52.040;4.490;2023-09-07T13:01:37;2.25;;;1.38;;
41446;SDS011;27185;52.040;4.490;2023-09-07T13:04:22;5.15;;;2.03;;
41446;SDS011;27185;52.040;4.490;2023-09-07T13:07:08;2.45;;;1.40;;
41446;SDS011;27185;52.040;4.490;2023-09-07T13:09:54;3.08;;;1.23;;
41446;SDS011;27185;52.040;4.490;2023-09-07T13:12:40;2.60;;;1.15;;
41446;SDS011;27185;52.040;4.490;2023-09-07T13:15:26;4.43;;;1.30;;
41446;SDS011;27185;52.040;4.490;2023-09-07T13:18:12;3.20;;;1.20;;
41446;SDS011;27185;52.040;4.490;2023-09-07T13:20:57;4.28;;;1.58;;
41446;SDS011;27185;52.040;4.490;2023-09-07T13:23:46;4.97;;;1.60;;
41446;SDS011;27185;52.040;4.490;2023-09-07T13:26:31;3.63;;;1.40;;
41446;SDS011;27185;52.040;4.490;2023-09-07T13:29:17;2.85;;;1.30;;
41446;SDS011;27185;52.040;4.490;2023-09-07T13:32:03;2.40;;;1.33;;
41446;SDS011;27185;52.040;4.490;2023-09-07T13:34:49;3.47;;;1.48;;
41446;SDS011;27185;52.040;4.490;2023-09-07T13:37:35;5.20;;;1.60;;
41446;SDS011;27185;52.040;4.490;2023-09-07T13:40:20;4.68;;;1.25;;
41446;SDS011;27185;52.040;4.490;2023-09-07T13:43:09;3.00;;;1.55;;
41446;SDS011;27185;52.040;4.490;2023-09-07T13:45:54;4.45;;;1.67;;
41446;SDS011;27185;52.040;4.490;2023-09-07T13:48:40;2.90;;;1.20;;
41446;SDS011;27185;52.040;4.490;2023-09-07T13:51:25;3.35;;;1.60;;
41446;SDS011;27185;52.040;4.490;2023-09-07T13:54:11;2.40;;;1.40;;
41446;SDS011;27185;52.040;4.490;2023-09-07T13:56:56;3.00;;;1.38;;
41446;SDS011;27185;52.040;4.490;2023-09-07T13:59:42;2.90;;;1.50;;
41446;SDS011;27185;52.040;4.490;2023-09-07T14:02:28;2.83;;;1.35;;
41446;SDS011;27185;52.040;4.490;2023-09-07T14:05:13;3.03;;;1.55;;
41446;SDS011;27185;52.040;4.490;2023-09-07T14:07:59;2.25;;;1.20;;
41446;SDS011;27185;52.040;4.490;2023-09-07T14:10:44;3.50;;;1.30;;
41446;SDS011;27185;52.040;4.490;2023-09-07T14:13:31;5.27;;;1.23;;
41446;SDS011;27185;52.040;4.490;2023-09-07T14:16:19;2.17;;;1.30;;
41446;SDS011;27185;52.040;4.490;2023-09-07T14:19:05;2.75;;;1.20;;
41446;SDS011;27185;52.040;4.490;2023-09-07T14:21:51;3.45;;;1.55;;
41446;SDS011;27185;52.040;4.490;2023-09-07T14:24:37;3.67;;;1.40;;
41446;SDS011;27185;52.040;4.490;2023-09-07T14:27:22;5.00;;;1.67;;
41446;SDS011;27185;52.040;4.490;2023-09-07T14:30:09;2.55;;;1.40;;
41446;SDS011;27185;52.040;4.490;2023-09-07T14:32:55;2.40;;;1.40;;
41446;SDS011;27185;52.040;4.490;2023-09-07T14:35:40;1.92;;;1.30;;
41446;SDS011;27185;52.040;4.490;2023-09-07T14:38:26;2.15;;;1.00;;
41446;SDS011;27185;52.040;4.490;2023-09-07T14:41:12;3.20;;;1.70;;
41446;SDS011;27185;52.040;4.490;2023-09-07T14:44:03;2.95;;;1.50;;
41446;SDS011;27185;52.040;4.490;2023-09-07T14:46:49;4.00;;;1.40;;
41446;SDS011;27185;52.040;4.490;2023-09-07T14:49:35;2.70;;;1.50;;
41446;SDS011;27185;52.040;4.490;2023-09-07T14:52:21;2.38;;;1.55;;
41446;SDS011;27185;52.040;4.490;2023-09-07T14:55:09;3.35;;;1.33;;
41446;SDS011;27185;52.040;4.490;2023-09-07T14:57:55;3.13;;;1.35;;
41446;SDS011;27185;52.040;4.490;2023-09-07T15:00:40;2.85;;;1.58;;
41446;SDS011;27185;52.040;4.490;2023-09-07T15:03:26;2.53;;;1.53;;
41446;SDS011;27185;52.040;4.490;2023-09-07T15:06:11;2.75;;;1.67;;
41446;SDS011;27185;52.040;4.490;2023-09-07T15:09:00;4.93;;;2.25;;
41446;SDS011;27185;52.040;4.490;2023-09-07T15:11:46;2.83;;;1.50;;
41446;SDS011;27185;52.040;4.490;2023-09-07T15:14:31;4.57;;;1.65;;
41446;SDS011;27185;52.040;4.490;2023-09-07T15:17:17;2.47;;;1.33;;
41446;SDS011;27185;52.040;4.490;2023-09-07T15:20:03;3.17;;;1.70;;
41446;SDS011;27185;52.040;4.490;2023-09-07T15:22:50;2.90;;;1.50;;
41446;SDS011;27185;52.040;4.490;2023-09-07T15:25:36;3.70;;;2.22;;
41446;SDS011;27185;52.040;4.490;2023-09-07T15:28:22;5.60;;;2.40;;
41446;SDS011;27185;52.040;4.490;2023-09-07T15:31:07;4.45;;;1.55;;
41446;SDS011;27185;52.040;4.490;2023-09-07T15:33:53;2.22;;;1.30;;
41446;SDS011;27185;52.040;4.490;2023-09-07T15:36:40;5.45;;;1.58;;
41446;SDS011;27185;52.040;4.490;2023-09-07T15:39:27;2.10;;;1.55;;
41446;SDS011;27185;52.040;4.490;2023-09-07T15:42:13;4.65;;;1.70;;
41446;SDS011;27185;52.040;4.490;2023-09-07T15:44:59;2.88;;;1.45;;
41446;SDS011;27185;52.040;4.490;2023-09-07T15:47:46;3.60;;;1.53;;
41446;SDS011;27185;52.040;4.490;2023-09-07T15:50:32;3.20;;;1.60;;
41446;SDS011;27185;52.040;4.490;2023-09-07T15:53:19;4.35;;;1.67;;
41446;SDS011;27185;52.040;4.490;2023-09-07T15:58:51;3.58;;;1.70;;
41446;SDS011;27185;52.040;4.490;2023-09-07T16:01:36;4.00;;;2.27;;
41446;SDS011;27185;52.040;4.490;2023-09-07T16:04:22;3.95;;;2.38;;
41446;SDS011;27185;52.040;4.490;2023-09-07T16:07:08;3.05;;;2.08;;
41446;SDS011;27185;52.040;4.490;2023-09-07T16:09:54;4.32;;;1.83;;
41446;SDS011;27185;52.040;4.490;2023-09-07T16:12:40;3.05;;;1.80;;
41446;SDS011;27185;52.040;4.490;2023-09-07T16:15:26;3.25;;;1.90;;
41446;SDS011;27185;52.040;4.490;2023-09-07T16:18:11;3.53;;;1.63;;
41446;SDS011;27185;52.040;4.490;2023-09-07T16:21:00;3.47;;;1.95;;
41446;SDS011;27185;52.040;4.490;2023-09-07T16:23:49;5.53;;;2.17;;
41446;SDS011;27185;52.040;4.490;2023-09-07T16:26:35;3.03;;;1.60;;
41446;SDS011;27185;52.040;4.490;2023-09-07T16:29:20;3.15;;;1.52;;
41446;SDS011;27185;52.040;4.490;2023-09-07T16:32:06;3.10;;;1.70;;
41446;SDS011;27185;52.040;4.490;2023-09-07T16:34:52;3.35;;;1.90;;
41446;SDS011;27185;52.040;4.490;2023-09-07T16:37:38;5.68;;;1.90;;
41446;SDS011;27185;52.040;4.490;2023-09-07T16:40:25;3.08;;;1.60;;
41446;SDS011;27185;52.040;4.490;2023-09-07T16:43:15;2.25;;;1.60;;
41446;SDS011;27185;52.040;4.490;2023-09-07T16:46:02;3.92;;;1.90;;
41446;SDS011;27185;52.040;4.490;2023-09-07T16:49:00;2.97;;;1.58;;
41446;SDS011;27185;52.040;4.490;2023-09-07T16:51:45;5.60;;;1.92;;